DATE METEO

IERI
Time Temp. Dewp. Hum. Wind dir Wind speed Wind gust Bar. 1h Prec. 24h Prec.
00:09 4.9 4 94 151 1.7 3.6 1009.3 0.4040 0.0000
00:18 5 4.1 94 135 1.7 4.2 1009 0.3030 0.0000
00:28 5.1 4.1 93 137 1.7 4.7 1008.7 0.2020 0.0000
00:39 5.1 4.1 93 139 1.7 3.6 1008.5 0.1010 0.0000
00:49 5.2 4.2 93 128 1.4 3.3 1008.4 0.2020 0.2000
00:58 5.2 4.2 93 123 1.4 3.3 1008.2 0.2020 0.2000
01:09 5.1 4.1 93 131 1.1 2.5 1008.1 0.3030 0.3000
01:19 5.2 4.2 93 135 1.1 2.8 1008.1 0.3030 0.3000
01:29 5.2 4.2 93 114 1.1 2.8 1007.9 0.3030 0.3000
01:38 5.3 4.3 93 137 1.1 2.5 1007.8 0.2020 0.3000
01:49 5.4 4.5 94 131 1.4 3.6 1007.6 0.2020 0.4000
01:59 5.4 4.5 94 128 1.1 2.5 1007.4 0.2020 0.5000
02:09 5.5 4.6 94 126 1.1 3.3 1007.3 0.2020 0.5000
02:19 5.6 4.7 94 127 1.1 2.2 1007.2 0.3030 0.6000
02:29 5.7 4.8 94 139 0.8 2.2 1007.3 0.3030 0.6000
02:39 5.8 4.9 94 135 1.1 2.2 1007.2 0.3030 0.7000
02:49 5.9 5 94 137 1.1 1.7 1007.1 0.3030 0.8000
03:00 6 5.1 94 135 1.1 2.5 1006.9 0.4040 0.9000
03:10 6 5.1 94 137 1.4 4.7 1006.7 0.5050 1.0000
03:19 6.1 5.2 94 141 1.1 3.3 1006.6 0.5050 1.1000
03:30 6.3 5.4 94 152 1.1 2.2 1006.5 0.6060 1.2000
03:40 6.3 5.4 94 141 1.4 2.5 1006.2 0.6060 1.4000
03:50 6.4 5.7 95 161 1.1 2.8 1006.1 0.6060 1.5000
04:00 6.6 5.9 95 172 1.1 2.2 1005.8 0.5050 1.5000
04:10 6.6 5.9 95 174 0.8 1.7 1005.8 0.4040 1.5000
04:20 6.8 6.1 95 166 0.8 1.4 1005.7 0.4040 1.6000
04:30 6.9 6.2 95 153 0.8 1.4 1005.7 0.3030 1.6000
04:40 7 6.3 95 135 0.3 1.1 1005.7 0.2020 1.6000
04:50 7 6.3 95 173 0.8 1.7 1005.6 0.1010 1.6000
05:00 7.1 6.4 95 185 0.3 1.1 1005.6 0.1010 1.6000
05:10 7.2 6.5 95 169 0.8 2.2 1005.4 0.1010 1.6000
05:21 7.3 6.6 95 191 1.4 2.5 1005.4 0.0000 1.6000
05:31 7.7 7 95 193 1.4 3.3 1005.3 0.0000 1.6000
05:40 7.8 7.1 95 162 1.1 2.2 1005.2 0.0000 1.6000
05:51 7.9 7.1 95 200 1.1 2.2 1005.1 0.0000 1.6000
06:01 8 7.2 95 209 0.8 1.7 1005.1 0.0000 1.6000
06:11 8.2 7.4 95 192 1.4 3.9 1005.1 0.0000 1.6000
06:20 8.6 7.7 94 194 2.2 3.9 1005 0.0000 1.6000
06:31 9 7.8 92 197 2.8 5.8 1004.9 0.0000 1.6000
06:41 9.2 7.6 90 189 1.4 3.3 1005 0.0000 1.6000
06:51 9.4 7.7 89 190 1.7 3.9 1004.9 0.0000 1.6000
07:01 9.6 7.7 88 185 1.1 2.5 1004.9 0.0000 1.6000
07:11 9.9 7.7 86 178 1.4 3.6 1004.8 0.0000 1.6000
07:22 10 7.6 85 197 3.3 5.8 1004.8 0.0000 1.6000
07:31 10.1 7.3 83 193 2.8 6.1 1004.8 0.0000 1.6000
07:41 10.4 7.3 81 194 1.7 5 1004.8 0.0000 1.6000
07:52 10.6 7.3 80 197 1.1 2.8 1004.7 0.0000 1.6000
08:02 10.6 7.3 80 180 1.1 3.3 1004.7 0.0000 1.6000
08:11 10.6 7.5 81 189 1.4 3.9 1004.7 0.0000 1.6000
08:21 10.7 7.6 81 180 1.1 2.5 1004.8 0.0000 1.6000
08:32 10.7 7.6 81 193 2.2 4.7 1004.7 0.0000 1.6000
08:42 10.7 7.6 81 188 1.1 4.2 1004.8 0.0000 1.6000
08:51 10.8 7.5 80 194 1.7 4.7 1004.7 0.0000 1.6000
09:02 11 7.5 79 193 2.5 5 1004.6 0.0000 1.6000
09:12 11 7.3 78 196 3.6 6.1 1004.5 0.0000 1.6000
09:22 11.1 7.4 78 190 1.4 4.2 1004.5 0.0000 1.6000
09:32 11.3 7.4 77 207 1.1 2.8 1004.5 0.0000 1.6000
09:42 11.4 7.3 76 195 1.7 3.6 1004.4 0.0000 1.6000
09:52 11.3 7.4 77 190 1.7 3.9 1004.4 0.0000 1.6000
10:02 11.2 7.5 78 181 1.1 2.2 1004.3 0.0000 1.6000
10:12 11.1 7.4 78 195 1.1 2.8 1004.4 0.0000 1.6000
10:22 11 7.5 79 197 1.4 2.8 1004.5 0.0000 1.6000
10:32 11.2 7.5 78 195 2.5 4.7 1004.5 0.0000 1.6000
10:42 11.5 7.4 76 195 1.7 3.9 1004.4 0.0000 1.6000
10:53 11.7 7.4 75 198 2.2 5 1004.4 0.0000 1.6000
11:03 11.8 7.3 74 199 1.7 4.2 1004.4 0.1010 1.7000
11:13 12 7.5 74 194 1.4 3.6 1004.2 0.1010 1.7000
11:23 12.1 7.6 74 198 1.7 3.9 1004.4 0.1010 1.7000
11:33 12.2 7.7 74 195 1.1 3.3 1004.3 0.1010 1.7000
11:43 12.3 7.6 73 196 1.4 3.6 1004.3 0.1010 1.7000
11:53 12.3 7.6 73 194 2.2 5.3 1004.2 0.1010 1.7000
12:04 12.4 7.5 72 195 1.4 2.8 1004.3 0.0000 1.7000
12:13 12.4 7.5 72 184 1.4 2.8 1004.3 0.0000 1.7000
12:23 12.4 7.5 72 191 1.7 3.3 1004.2 0.0000 1.7000
12:32 12.5 7.6 72 191 1.1 2.5 1004.2 0.0000 1.7000
12:40 12.4 7.7 73 190 1.1 2.8 1004.2 0.0000 1.7000
12:54 12.4 7.7 73 192 1.4 2.8 1004 0.0000 1.7000
13:04 12.4 7.5 72 192 1.7 4.2 1004 0.0000 1.7000
13:14 12.4 7.5 72 192 2.2 3.9 1003.8 0.0000 1.7000
13:20 12.4 7.5 72 195 2.5 4.2 1003.7 0.0000 1.7000
13:34 12.6 7.1 69 190 3.3 6.7 1003.7 0.0000 1.7000
13:40 12.6 7.3 70 199 2.8 4.7 1003.5 0.0000 1.7000
13:45 12.6 7.1 69 192 3.6 6.1 1003.6 0.0000 1.7000
14:04 12.7 7.2 69 196 1.7 4.2 1003.7 0.0000 1.7000
14:13 12.6 7.3 70 204 1.1 2.2 1003.8 0.0000 1.7000
14:24 12.5 7.6 72 193 1.7 3.6 1003.6 0.0000 1.7000
14:35 12.3 7.8 74 196 1.4 2.8 1003.6 0.0000 1.7000
14:37 12.2 7.7 74 196 1.4 2.5 1003.3 0.0000 1.7000
15:45 11.7 7.6 76 207 1.1 2.5 1003.3 0.0000 1.7000
15:55 11.6 7.7 77 196 1.7 3.3 1003.2 0.0000 1.7000
16:05 11.6 7.7 77 197 1.1 2.8 1003 0.0000 1.7000
16:16 11.6 7.5 76 196 1.1 2.5 1002.9 0.0000 1.7000
16:26 11.6 7.5 76 196 1.4 2.8 1002.8 0.0000 1.7000
16:36 11.6 7.5 76 190 1.1 3.3 1002.7 0.0000 1.7000
16:46 11.7 7.2 74 195 1.4 3.6 1002.6 0.0000 1.7000
16:56 11.7 7.2 74 204 1.4 2.8 1002.5 0.0000 1.7000
17:06 11.5 7.2 75 205 0.8 1.4 1002.5 0.0000 1.7000
17:16 11.4 7.5 77 194 0.8 1.7 1002.4 0.0000 1.7000
17:27 11.2 7.5 78 187 0.3 1.4 1002.3 0.0000 1.7000
17:36 11.1 7.6 79 45 0.3 1.1 1002.2 0.0000 1.7000
17:46 11 7.5 79 211 0.8 1.4 1002.1 0.0000 1.7000
17:56 10.9 7.4 79 194 0.8 1.7 1002 0.0000 1.7000
18:06 10.9 7.2 78 194 1.1 2.5 1002 0.0000 1.7000
18:17 11.3 7.4 77 190 1.1 2.8 1001.9 0.0000 1.7000
18:27 11.6 7.1 74 208 1.4 3.9 1001.8 0.0000 1.7000
18:37 11.8 7.3 74 208 1.1 2.8 1001.6 0.0000 1.7000
18:47 12 7.3 73 187 1.4 3.6 1001.6 0.0000 1.7000
18:57 12 7.3 73 201 1.4 3.6 1001.7 0.0000 1.7000
19:07 12.1 7.4 73 196 1.4 5 1001.6 0.0000 1.7000
19:18 12.2 7.3 72 195 1.4 3.3 1001.5 0.0000 1.7000
19:27 12.3 7.2 71 185 1.4 3.6 1001.5 0.0000 1.7000
19:37 12.4 7.5 72 195 1.4 6.4 1001.6 0.0000 1.7000
19:48 12.4 7.5 72 202 1.4 3.6 1001.6 0.0000 1.7000
19:57 12.4 7.5 72 192 1.7 3.6 1001.7 0.0000 1.7000
20:08 12.4 7.5 72 188 1.4 3.3 1001.7 0.0000 1.7000
20:17 12.4 7.7 73 192 1.4 3.9 1001.8 0.0000 1.7000
20:28 12.4 7.7 73 212 1.4 4.2 1002 0.0000 1.7000
20:38 12.3 8 75 198 1.4 3.6 1002 0.0000 1.7000
20:48 12.2 8.3 77 197 1.4 3.6 1001.9 0.0000 1.7000
20:58 12.1 8.2 77 199 2.2 4.7 1001.8 0.0000 1.7000
21:08 12 8.3 78 196 1.7 3.9 1001.9 0.0000 1.7000
21:18 11.9 8.6 80 210 1.4 3.3 1002 0.0000 1.7000
21:28 11.8 8.6 81 254 1.1 2.8 1002.1 0.0000 1.7000
21:39 11.5 8.5 82 270 1.1 2.8 1002.2 0.0000 1.7000
21:48 11.4 8.8 84 227 1.4 4.7 1002.1 0.0000 1.7000
21:58 11.5 8.7 83 169 1.4 2.8 1002.2 0.0000 1.7000
22:08 11.6 8.6 82 178 1.4 4.2 1002.3 0.1010 1.8000
22:18 11.2 9.1 87 188 1.1 2.8 1002.3 0.3030 2.0000
22:28 10.9 9.2 89 225 1.7 3.3 1002.2 0.4040 2.1000
22:39 10.6 9.2 91 255 1.4 3.3 1002.3 0.6060 2.3000
22:49 10.4 9.2 92 238 1.4 3.6 1002.3 0.7070 2.4000
22:58 10.4 9.2 92 232 1.4 3.6 1002.4 0.7070 2.4000
23:09 10.3 9.1 92 226 1.4 3.3 1002.4 0.6060 2.4000
23:19 10.3 9.1 92 244 1.1 3.3 1002.4 0.3030 2.4000
23:29 10.2 9.1 93 253 0.8 1.4 1002.3 0.2020 2.4000
23:39 10.2 9.1 93 228 0.8 1.7 1002.2 0.0000 2.4000
23:49 10.1 9 93 225 0.3 1.1 1002.3 0.0000 2.4000

STATISTICILE ZILEI

2021-10-24
TEMPERATURA
MEDIA
10.0
MAXIM
12.7
14:04
MINIM
4.9
00:09
PRESIUNEA
MEDIA
1004.2
MAXIM
1009.3
00:09
MINIM
1001.5
19:18
PUNCTUL DE ROUĂ
MEDIA
7.1
MAXIM
9.2
22:28
MINIM
4.0
00:09
UMIDITATEA
MEDIA
83
MAXIM
95
03:50
MINIM
69
13:34
WIND SPEED
MEDIA
1.4
MAXIM
3.6
09:12
WIND GUST
MEDIA
3.3
MAXIM
6.7
13:34
WIND DIRECTION
PREVAILING
S
66.4%
N
0.0
NE
0.7
E
0.0
SE
17.5
S
66.4
SW
12.4
W
2.9
NW
0.0
PRECIPITATION
RAIN HOUR
0.7
RAIN DAY
2.4
TEMPERATURA (°C)
MINIM
4.9
MAXIM
12.7
MEDIA
10.0
PRESIUNEA (hpa)
MINIM
1001.5
MAXIM
1009.3
MEDIA
1004.2
STATIA METEO